Time;durP1;ratioP1;P1;durP2;ratioP2;P2;SDS_P1;SDS_P2;PMS_P1;PMS_P2;Temp;Humidity;BMP_temperature;BMP_pressure;BME280_temperature;BME280_humidity;BME280_pressure;Samples;Min_cycle;Max_cycle;Signal;HPM_P1;HPM_P2
2022/01/29 00:00:59;;;;;;;259.30;71.53;;;;;;;-12.25;75.13;99392.06;4937765;29;20043;-82
2022/01/29 00:03:30;;;;;;;204.95;62.25;;;;;;;-12.13;75.42;99380.19;4922215;29;20047;-80
2022/01/29 00:05:58;;;;;;;208.45;60.05;;;;;;;-12.02;75.23;99379.44;4938680;29;20128;-80
2022/01/29 00:08:24;;;;;;;236.57;64.50;;;;;;;-11.95;74.48;99379.53;4937887;29;20047;-82
2022/01/29 00:10:54;;;;;;;219.85;60.20;;;;;;;-11.96;74.52;99377.75;4921927;29;20137;-81
2022/01/29 00:13:21;;;;;;;187.90;57.20;;;;;;;-11.93;73.87;99362.34;4955208;28;20054;-82
2022/01/29 00:15:47;;;;;;;205.63;58.78;;;;;;;-11.96;73.44;99364.88;4954488;28;20137;-84
2022/01/29 00:18:13;;;;;;;221.40;58.20;;;;;;;-12.00;73.21;99375.19;4937541;29;20043;-82
2022/01/29 00:20:39;;;;;;;197.55;54.33;;;;;;;-12.08;73.03;99369.06;4921765;29;20562;-78
2022/01/29 00:23:05;;;;;;;193.20;49.90;;;;;;;-12.17;72.84;99358.66;4953474;28;20099;-81
2022/01/29 00:25:31;;;;;;;215.50;51.22;;;;;;;-12.23;73.01;99364.59;4922183;29;20047;-81
2022/01/29 00:27:59;;;;;;;351.23;44.78;;;;;;;-12.33;72.83;99362.78;4921549;29;20138;-80
2022/01/29 00:30:31;;;;;;;313.88;44.65;;;;;;;-12.41;73.18;99358.38;4922708;29;20070;-81
2022/01/29 00:32:57;;;;;;;273.05;40.88;;;;;;;-12.32;73.30;99363.63;4925873;29;20507;-80
2022/01/29 00:35:23;;;;;;;316.05;40.53;;;;;;;-12.47;73.50;99359.16;4960287;29;20415;-80
2022/01/29 00:37:49;;;;;;;415.90;41.50;;;;;;;-12.47;73.39;99354.03;4940827;29;20162;-82
2022/01/29 00:40:15;;;;;;;248.70;34.95;;;;;;;-12.48;73.54;99357.44;4909550;29;20146;-81
2022/01/29 00:42:41;;;;;;;352.10;36.60;;;;;;;-12.54;73.64;99355.66;4956976;29;20133;-82
2022/01/29 00:45:07;;;;;;;264.02;27.00;;;;;;;-12.79;73.69;99351.03;4941916;29;20047;-82
2022/01/29 00:47:33;;;;;;;213.02;29.55;;;;;;;-12.89;73.83;99359.47;4941188;29;20134;-83
2022/01/29 00:49:59;;;;;;;330.13;39.22;;;;;;;-12.95;74.33;99355.09;4941034;29;20047;-82
2022/01/29 00:52:25;;;;;;;507.67;40.72;;;;;;;-13.00;74.54;99362.75;4957974;28;20039;-82
2022/01/29 00:54:51;;;;;;;326.33;31.60;;;;;;;-12.95;74.75;99357.69;4925210;29;20051;-83
2022/01/29 00:57:17;;;;;;;409.63;34.13;;;;;;;-13.01;75.13;99355.91;4940911;29;20194;-81
2022/01/29 00:59:43;;;;;;;232.82;36.25;;;;;;;-12.86;75.19;99354.34;4956709;29;20125;-82
2022/01/29 01:02:09;;;;;;;315.83;34.95;;;;;;;-12.80;75.09;99365.59;4956474;29;20124;-82
2022/01/29 01:04:39;;;;;;;126.78;23.58;;;;;;;-12.90;75.50;99363.75;4908946;29;20541;-81
2022/01/29 01:07:08;;;;;;;;;;;;;;;-12.97;74.96;99359.38;4925369;29;20058;-82
2022/01/29 01:09:34;;;;;;;90.35;25.13;;;;;;;-12.97;75.36;99360.25;4956483;28;19923;-82
2022/01/29 01:12:00;;;;;;;85.72;25.38;;;;;;;-12.83;75.32;99354.41;4940592;29;20062;-83
2022/01/29 01:14:26;;;;;;;155.23;26.88;;;;;;;-12.73;74.74;99369.13;4956117;28;20055;-82
2022/01/29 01:16:52;;;;;;;275.48;29.13;;;;;;;-12.85;74.81;99362.13;4924275;29;20047;-82
2022/01/29 01:19:18;;;;;;;381.95;34.67;;;;;;;-12.84;75.06;99368.97;4956290;29;20039;-82
2022/01/29 01:21:44;;;;;;;272.30;30.00;;;;;;;-12.86;75.46;99364.66;4923827;29;20110;-82
2022/01/29 01:24:11;;;;;;;381.42;33.97;;;;;;;-12.87;75.67;99378.38;4940711;29;20455;-82
2022/01/29 01:26:37;;;;;;;265.55;30.63;;;;;;;-12.89;75.86;99365.50;4924252;29;20146;-81
2022/01/29 01:29:03;;;;;;;199.88;30.27;;;;;;;-12.82;75.51;99377.59;4908390;29;20142;-81
2022/01/29 01:31:29;;;;;;;244.48;29.92;;;;;;;-12.88;75.66;99382.66;4939943;29;20050;-82
2022/01/29 01:33:55;;;;;;;259.60;30.27;;;;;;;-12.94;75.82;99376.53;4940102;29;20050;-82
2022/01/29 01:36:24;;;;;;;219.32;29.92;;;;;;;-12.84;75.58;99381.00;4941737;29;20047;-82
2022/01/29 01:38:56;;;;;;;139.00;25.50;;;;;;;-12.82;75.20;99371.59;4966319;29;20051;-83
2022/01/29 01:41:25;;;;;;;115.38;26.67;;;;;;;-12.78;74.75;99373.38;4956335;28;20510;-83
2022/01/29 01:43:51;;;;;;;73.47;25.63;;;;;;;-12.95;74.69;99359.38;4940629;28;20047;-83
2022/01/29 01:46:17;;;;;;;114.88;24.52;;;;;;;-13.02;74.81;99364.44;4939677;29;20130;-82
2022/01/29 01:48:43;;;;;;;110.60;28.48;;;;;;;-12.99;74.50;99351.63;4956032;29;20499;-83
2022/01/29 01:51:09;;;;;;;126.00;25.88;;;;;;;-12.89;74.55;99364.63;4924134;29;20047;-83
2022/01/29 01:53:35;;;;;;;103.13;29.45;;;;;;;-12.92;74.49;99368.03;4955787;29;20062;-82
2022/01/29 01:56:01;;;;;;;92.85;30.65;;;;;;;-12.90;74.45;99358.59;4940784;29;20414;-80
2022/01/29 01:58:27;;;;;;;133.32;34.72;;;;;;;-12.90;74.13;99360.31;4964637;29;20054;-81
2022/01/29 02:00:53;;;;;;;289.77;37.42;;;;;;;-12.90;74.34;99347.44;4916794;29;20038;-84
2022/01/29 02:03:22;;;;;;;361.70;36.65;;;;;;;-13.04;74.87;99355.84;4926055;29;20051;-78
2022/01/29 02:05:48;;;;;;;347.63;42.58;;;;;;;-12.97;74.61;99354.22;4961027;29;20065;-80
2022/01/29 02:08:15;;;;;;;472.02;44.53;;;;;;;-13.01;74.51;99367.88;4990468;28;20051;-79
2022/01/29 02:10:45;;;;;;;334.35;46.70;;;;;;;-13.11;75.25;99363.47;4957272;29;20043;-79
2022/01/29 02:13:11;;;;;;;531.40;48.20;;;;;;;-13.24;75.47;99365.00;4955886;29;20045;-81
2022/01/29 02:15:37;;;;;;;510.75;53.65;;;;;;;-13.24;75.97;99365.00;4923564;29;20050;-80
2022/01/29 02:18:04;;;;;;;458.15;40.40;;;;;;;-13.31;76.25;99374.34;4939720;29;20137;-82
2022/01/29 02:20:32;;;;;;;352.80;41.80;;;;;;;-13.15;76.36;99370.25;4956799;29;20458;-80
2022/01/29 02:22:58;;;;;;;210.60;34.45;;;;;;;-13.06;76.55;99372.94;4924153;29;20094;-82
2022/01/29 02:25:35;;;;;;;230.20;41.72;;;;;;;-13.01;76.37;99365.28;4908066;29;20043;-86
2022/01/29 02:28:05;;;;;;;147.18;38.70;;;;;;;-12.95;75.76;99359.38;4924728;29;20418;-82
2022/01/29 02:30:32;;;;;;;181.27;42.42;;;;;;;-12.97;76.12;99362.81;4941274;29;20050;-82
2022/01/29 02:32:58;;;;;;;337.52;41.25;;;;;;;-12.94;75.54;99366.25;4913257;29;20097;-78
2022/01/29 02:35:26;;;;;;;388.63;43.17;;;;;;;-13.05;76.03;99373.81;4956113;29;20070;-83
2022/01/29 02:37:52;;;;;;;367.83;46.33;;;;;;;-13.24;76.24;99373.59;4923813;29;20525;-83
2022/01/29 02:40:19;;;;;;;277.60;49.33;;;;;;;-13.21;76.01;99367.59;4923463;29;20078;-84
2022/01/29 02:42:45;;;;;;;186.70;51.05;;;;;;;-13.14;76.43;99361.69;4923501;29;20043;-78
2022/01/29 02:45:11;;;;;;;206.10;53.03;;;;;;;-13.08;75.88;99376.38;4956051;29;20047;-84
2022/01/29 02:47:37;;;;;;;196.80;49.22;;;;;;;-13.07;75.16;99376.38;4923009;29;20051;-84
2022/01/29 02:50:04;;;;;;;159.82;44.75;;;;;;;-13.08;75.27;99374.66;4907382;29;20046;-91
2022/01/29 02:52:30;;;;;;;180.18;47.83;;;;;;;-13.21;75.00;99368.44;4922578;28;20106;-78
2022/01/29 02:54:56;;;;;;;231.18;58.13;;;;;;;-13.25;75.17;99360.69;4922301;29;20082;-87
2022/01/29 02:57:22;;;;;;;185.88;54.20;;;;;;;-13.24;75.21;99362.41;4922548;29;20054;-80
2022/01/29 02:59:49;;;;;;;155.40;49.25;;;;;;;-13.21;74.98;99357.28;4954522;29;20086;-80
2022/01/29 03:02:15;;;;;;;199.50;50.38;;;;;;;-13.22;74.71;99365.88;4912593;29;20511;-83
2022/01/29 03:04:41;;;;;;;230.68;55.58;;;;;;;-13.13;74.53;99376.28;4940929;28;20046;-80
2022/01/29 03:07:07;;;;;;;169.45;50.05;;;;;;;-13.06;74.32;99367.81;4957326;28;20518;-82
2022/01/29 03:09:33;;;;;;;211.77;53.40;;;;;;;-12.97;74.26;99367.97;4957334;28;20137;-80
2022/01/29 03:11:59;;;;;;;178.55;51.83;;;;;;;-12.94;74.34;99356.81;4941638;28;20109;-81
2022/01/29 03:14:25;;;;;;;190.85;52.10;;;;;;;-12.80;73.98;99369.88;4957646;28;20093;-81
2022/01/29 03:16:51;;;;;;;220.98;55.42;;;;;;;-12.80;73.90;99357.03;4951523;29;20514;-82
2022/01/29 03:19:17;;;;;;;192.80;54.75;;;;;;;-12.71;73.57;99359.75;4906554;29;20039;-81
2022/01/29 03:21:43;;;;;;;221.45;55.38;;;;;;;-12.72;73.25;99363.13;4937623;29;20146;-81
2022/01/29 03:24:09;;;;;;;186.20;54.33;;;;;;;-12.62;73.35;99365.00;4923624;29;20184;-80
2022/01/29 03:26:35;;;;;;;190.32;54.50;;;;;;;-12.60;72.99;99355.56;4953489;29;20199;-79
2022/01/29 03:29:01;;;;;;;186.55;54.05;;;;;;;-12.59;72.88;99354.75;4954236;29;20518;-79
2022/01/29 03:31:28;;;;;;;158.90;50.97;;;;;;;-12.58;72.78;99353.88;4969781;28;20043;-79
2022/01/29 03:33:54;;;;;;;173.80;52.63;;;;;;;-12.56;72.43;99362.50;4955010;29;20055;-82
2022/01/29 03:36:20;;;;;;;166.35;51.33;;;;;;;-12.57;72.12;99358.19;4922006;29;20043;-81
2022/01/29 03:38:46;;;;;;;173.90;53.35;;;;;;;-12.58;71.93;99358.16;4953421;29;20507;-82
2022/01/29 03:41:13;;;;;;;148.57;49.88;;;;;;;-12.66;71.58;99342.63;4906195;29;20074;-81
2022/01/29 03:43:46;;;;;;;159.30;49.05;;;;;;;-12.70;71.55;99340.88;4922721;29;20406;-79
2022/01/29 03:46:13;;;;;;;144.85;46.85;;;;;;;-12.67;71.38;99351.22;4910668;29;20129;-82
2022/01/29 03:48:39;;;;;;;160.80;46.95;;;;;;;-12.69;71.60;99347.72;4955979;29;20438;-82
2022/01/29 03:51:05;;;;;;;189.18;49.35;;;;;;;-12.68;71.24;99352.03;4941366;29;20043;-83
2022/01/29 03:53:31;;;;;;;164.10;44.35;;;;;;;-12.67;70.97;99351.22;4910877;29;20096;-82
2022/01/29 03:55:57;;;;;;;120.40;40.55;;;;;;;-12.73;70.57;99340.81;4959261;29;20043;-81
2022/01/29 03:58:23;;;;;;;132.18;38.15;;;;;;;-12.85;70.05;99350.97;4910724;29;20051;-80
2022/01/29 04:00:49;;;;;;;132.27;36.00;;;;;;;-13.05;69.87;99353.22;4924358;29;20055;-81
2022/01/29 04:03:15;;;;;;;131.48;36.30;;;;;;;-13.14;68.84;99368.53;4908121;29;20050;-79
2022/01/29 04:05:41;;;;;;;114.07;34.88;;;;;;;-13.20;69.09;99364.16;4959427;28;20047;-81
2022/01/29 04:08:14;;;;;;;135.30;35.80;;;;;;;-13.31;68.74;99355.44;4958779;29;20186;-81
2022/01/29 04:10:40;;;;;;;136.43;35.28;;;;;;;-13.37;68.10;99368.22;4913128;29;20053;-78
2022/01/29 04:13:09;;;;;;;114.00;34.60;;;;;;;-13.52;68.34;99359.44;4926233;29;20061;-79
2022/01/29 04:15:35;;;;;;;94.75;32.75;;;;;;;-13.57;68.29;99361.06;4941698;29;20392;-78
2022/01/29 04:18:01;;;;;;;128.10;38.00;;;;;;;-13.66;68.21;99371.19;4909796;29;20141;-81
2022/01/29 04:20:28;;;;;;;172.52;38.85;;;;;;;-13.69;68.04;99365.97;4941265;29;20046;-80
2022/01/29 04:22:55;;;;;;;136.95;37.60;;;;;;;-13.75;68.09;99371.03;4909544;29;20067;-79
2022/01/29 04:25:23;;;;;;;148.98;39.15;;;;;;;-13.77;67.73;99375.28;4909838;29;20046;-80
2022/01/29 04:27:50;;;;;;;163.05;38.95;;;;;;;-13.86;67.47;99360.56;4941456;29;20043;-79
2022/01/29 04:30:30;;;;;;;144.73;38.85;;;;;;;-13.90;67.46;99373.34;4941053;29;20051;-81
2022/01/29 04:33:14;;;;;;;158.57;37.45;;;;;;;-14.03;67.05;99378.22;4959181;28;20503;-80
2022/01/29 04:35:39;;;;;;;156.50;40.40;;;;;;;-14.07;66.69;99388.41;4929535;29;20047;-80
2022/01/29 04:38:06;;;;;;;177.85;39.30;;;;;;;-14.11;67.21;99379.78;4909924;29;20039;-82
2022/01/29 04:40:33;;;;;;;161.50;34.30;;;;;;;-14.15;66.47;99388.28;4958530;28;20043;-83
2022/01/29 04:42:59;;;;;;;140.55;33.65;;;;;;;-14.17;66.41;99381.41;4956637;29;20043;-81
2022/01/29 04:45:25;;;;;;;120.10;35.38;;;;;;;-14.24;66.30;99382.97;4956642;29;20137;-80
2022/01/29 04:47:51;;;;;;;130.85;34.22;;;;;;;-14.25;66.53;99386.41;4925255;29;20058;-80
2022/01/29 04:50:18;;;;;;;112.78;34.28;;;;;;;-14.25;66.64;99386.41;4940735;29;20043;-79
2022/01/29 04:52:44;;;;;;;128.82;34.78;;;;;;;-14.41;66.14;99369.78;4957947;29;20043;-79
2022/01/29 04:55:10;;;;;;;127.40;31.00;;;;;;;-14.46;66.48;99371.41;4908927;29;20053;-79
2022/01/29 04:57:37;;;;;;;154.38;35.50;;;;;;;-14.45;66.33;99379.13;4908878;29;20510;-77
2022/01/29 05:00:19;;;;;;;172.93;36.85;;;;;;;-14.38;65.76;99381.84;4940642;29;20482;-82
2022/01/29 05:02:54;;;;;;;131.27;34.97;;;;;;;-14.35;66.05;99379.34;4941634;29;20084;-81
2022/01/29 05:05:22;;;;;;;140.43;36.47;;;;;;;-14.34;66.22;99383.63;4940244;29;20043;-81
2022/01/29 05:07:51;;;;;;;129.77;33.20;;;;;;;-14.31;65.64;99391.41;4941117;29;20098;-78
2022/01/29 05:10:22;;;;;;;156.32;35.58;;;;;;;-14.26;66.32;99384.63;4908255;29;20066;-84
2022/01/29 05:13:00;;;;;;;113.75;29.67;;;;;;;-14.21;65.72;99386.47;4904430;29;20044;-83
2022/01/29 05:15:43;;;;;;;147.88;34.13;;;;;;;-14.18;65.81;99375.38;4875237;29;20455;-80
2022/01/29 05:29:12;;;;;;;178.35;36.22;;;;;;;-13.97;65.17;99380.06;4879240;29;20115;-83
2022/01/29 05:31:38;;;;;;;142.82;32.63;;;;;;;-14.06;65.09;99379.91;4880185;29;20138;-82
2022/01/29 05:34:04;;;;;;;148.48;37.45;;;;;;;-13.87;65.80;99376.81;4875325;29;20051;-79
2022/01/29 05:36:30;;;;;;;145.75;35.47;;;;;;;-13.92;64.77;99380.13;4892175;29;20051;-79
2022/01/29 05:38:56;;;;;;;178.43;36.92;;;;;;;-13.88;64.77;99387.06;4909518;29;20067;-82
2022/01/29 05:41:22;;;;;;;232.75;37.38;;;;;;;-13.90;64.45;99379.34;4936330;29;20127;-80
2022/01/29 05:43:48;;;;;;;199.30;39.92;;;;;;;-13.93;64.20;99383.56;4891184;29;20055;-80
2022/01/29 05:46:15;;;;;;;215.60;38.53;;;;;;;-13.91;64.42;99387.00;4925179;29;20099;-81
2022/01/29 05:48:41;;;;;;;340.50;40.03;;;;;;;-14.07;64.31;99376.44;4931426;29;20051;-80
2022/01/29 05:51:07;;;;;;;212.45;40.05;;;;;;;-13.99;64.75;99372.34;4944364;29;20083;-79
2022/01/29 05:53:33;;;;;;;219.10;36.47;;;;;;;-14.03;64.84;99388.50;4912518;29;20145;-80
2022/01/29 05:55:59;;;;;;;285.27;36.58;;;;;;;-13.96;65.06;99390.34;4939974;29;20039;-80
2022/01/29 05:58:25;;;;;;;181.40;38.92;;;;;;;-13.93;64.46;99373.28;4956885;29;20142;-82
2022/01/29 06:00:51;;;;;;;255.18;39.55;;;;;;;-13.80;64.27;99383.81;4908191;29;20043;-81
2022/01/29 06:03:17;;;;;;;213.43;39.13;;;;;;;-13.73;63.96;99383.06;4939778;29;20047;-82
2022/01/29 06:05:43;;;;;;;227.40;38.58;;;;;;;-13.76;63.80;99377.88;4908083;29;20093;-81
2022/01/29 06:08:09;;;;;;;196.02;38.28;;;;;;;-13.76;63.90;99366.75;4907746;29;20097;-79
2022/01/29 06:10:35;;;;;;;240.77;40.90;;;;;;;-13.62;64.23;99362.69;4907569;29;20047;-79
2022/01/29 06:13:09;;;;;;;191.60;35.63;;;;;;;-13.58;63.93;99369.59;4923961;29;20051;-79
2022/01/29 06:15:39;;;;;;;185.55;40.00;;;;;;;-13.64;63.76;99356.66;4925501;29;20462;-82
2022/01/29 06:18:05;;;;;;;190.40;39.95;;;;;;;-13.59;63.81;99359.31;4924656;29;20047;-79
2022/01/29 06:20:31;;;;;;;237.48;40.25;;;;;;;-13.54;63.57;99366.25;4955388;29;20134;-81
2022/01/29 06:22:58;;;;;;;181.27;35.65;;;;;;;-13.47;63.94;99365.50;4923553;29;20061;-81
2022/01/29 06:25:24;;;;;;;183.93;41.13;;;;;;;-13.40;63.29;99370.75;4955813;29;20050;-82
2022/01/29 06:27:50;;;;;;;173.02;38.70;;;;;;;-13.37;63.04;99370.81;4924981;29;20059;-80
2022/01/29 06:30:16;;;;;;;163.30;38.28;;;;;;;-13.31;63.20;99365.75;4940830;29;20503;-81
2022/01/29 06:32:42;;;;;;;146.30;37.67;;;;;;;-13.20;62.90;99359.00;4943584;29;20055;-81
2022/01/29 06:35:09;;;;;;;185.80;41.63;;;;;;;-13.13;63.04;99357.41;4958553;29;20162;-79
2022/01/29 06:37:35;;;;;;;183.52;43.63;;;;;;;-13.07;62.92;99355.78;4977264;29;20047;-80
2022/01/29 06:40:01;;;;;;;146.57;39.67;;;;;;;-12.94;62.54;99361.97;4930476;29;20529;-79
2022/01/29 06:42:28;;;;;;;148.85;40.20;;;;;;;-12.80;62.57;99365.59;4951973;29;20074;-81
2022/01/29 06:44:54;;;;;;;148.20;38.38;;;;;;;-12.75;62.20;99350.22;4908445;29;20055;-81
2022/01/29 06:47:20;;;;;;;153.95;44.38;;;;;;;-12.55;62.51;99366.81;4922927;29;20074;-81
2022/01/29 06:49:46;;;;;;;154.50;41.88;;;;;;;-12.40;62.30;99370.41;4907198;29;20106;-81
2022/01/29 06:52:12;;;;;;;167.82;44.03;;;;;;;-12.28;61.98;99353.38;4922826;29;20447;-83
2022/01/29 06:54:38;;;;;;;201.02;45.45;;;;;;;-12.08;61.63;99356.16;4938866;29;20047;-82
2022/01/29 06:57:04;;;;;;;183.77;44.88;;;;;;;-12.03;60.99;99359.69;4922828;29;20079;-81
2022/01/29 06:59:30;;;;;;;168.57;47.58;;;;;;;-11.98;59.90;99364.00;4891240;29;20048;-80
2022/01/29 07:01:56;;;;;;;154.75;43.45;;;;;;;-11.86;59.90;99367.56;4922653;29;20451;-81
2022/01/29 07:04:23;;;;;;;157.60;47.38;;;;;;;-11.89;59.12;99364.09;4906738;29;20105;-81
2022/01/29 07:06:49;;;;;;;183.75;44.90;;;;;;;-12.43;58.45;99370.38;4922935;29;20055;-79
2022/01/29 07:09:15;;;;;;;164.65;44.17;;;;;;;-12.59;59.19;99359.88;4938920;29;20122;-80
2022/01/29 07:11:43;;;;;;;204.80;57.63;;;;;;;-12.49;59.58;99356.56;4923076;29;20057;-80
2022/01/29 07:14:15;;;;;;;204.18;56.60;;;;;;;-12.25;59.60;99353.44;4939235;29;20454;-81
2022/01/29 07:16:43;;;;;;;202.65;56.33;;;;;;;-12.11;58.72;99353.59;4956746;29;20043;-82
2022/01/29 07:19:09;;;;;;;214.07;59.15;;;;;;;-11.98;58.49;99353.72;4938411;29;20054;-82
2022/01/29 07:21:35;;;;;;;238.20;62.67;;;;;;;-11.83;57.97;99338.38;4953743;29;20507;-81
2022/01/29 07:24:01;;;;;;;217.93;61.05;;;;;;;-11.75;57.82;99324.69;4922452;29;20046;-82
2022/01/29 07:26:27;;;;;;;192.25;58.85;;;;;;;-11.59;57.88;99327.38;4922500;29;20043;-81
2022/01/29 07:28:53;;;;;;;199.43;56.35;;;;;;;-11.44;57.46;99330.09;4922304;29;20042;-80
2022/01/29 07:31:20;;;;;;;208.77;59.95;;;;;;;-11.39;57.17;99309.50;4906496;29;20179;-83
2022/01/29 07:33:46;;;;;;;198.25;57.63;;;;;;;-11.22;56.93;99336.28;4954982;29;20126;-82
2022/01/29 07:36:13;;;;;;;179.77;51.22;;;;;;;-11.18;56.66;99319.94;4907996;29;20051;-81
2022/01/29 07:38:39;;;;;;;191.40;58.50;;;;;;;-10.98;56.04;99321.78;4954317;29;20047;-82
2022/01/29 07:41:05;;;;;;;175.10;57.65;;;;;;;-10.85;56.25;99323.59;4922045;29;20498;-82
2022/01/29 07:43:31;;;;;;;213.25;61.90;;;;;;;-10.80;55.83;99316.72;4906690;29;20043;-80
2022/01/29 07:45:57;;;;;;;214.98;63.35;;;;;;;-10.72;55.66;99319.34;4953718;29;20055;-83
2022/01/29 07:48:24;;;;;;;214.27;64.63;;;;;;;-10.59;55.62;99316.84;4922005;29;20533;-81
2022/01/29 07:50:50;;;;;;;203.13;60.10;;;;;;;-10.53;55.69;99314.28;4953659;29;20411;-81
2022/01/29 07:53:16;;;;;;;204.18;63.97;;;;;;;-10.50;55.65;99309.97;4921860;29;20150;-80
2022/01/29 07:55:42;;;;;;;208.35;61.75;;;;;;;-10.53;55.04;99301.38;4937531;29;20051;-80
2022/01/29 07:58:10;;;;;;;225.30;67.43;;;;;;;-10.39;55.81;99305.72;4921909;29;20563;-81
2022/01/29 08:00:36;;;;;;;192.30;58.60;;;;;;;-10.19;55.59;99301.44;4953439;29;20495;-79
2022/01/29 08:03:02;;;;;;;199.23;62.90;;;;;;;-9.98;55.41;99289.41;4905768;29;20039;-80
2022/01/29 08:05:29;;;;;;;181.63;57.55;;;;;;;-9.79;54.89;99285.97;4921714;29;20141;-81
2022/01/29 08:07:54;;;;;;;194.43;53.78;;;;;;;-9.58;55.02;99290.31;4953546;29;20454;-82
2022/01/29 08:10:20;;;;;;;205.02;62.45;;;;;;;-9.48;54.44;99285.97;4905876;29;20043;-81
2022/01/29 08:12:46;;;;;;;175.50;54.40;;;;;;;-9.27;54.56;99285.97;4954970;28;20047;-83
2022/01/29 08:15:12;;;;;;;177.75;56.13;;;;;;;-9.10;54.35;99281.63;4922288;29;20082;-80
2022/01/29 08:17:38;;;;;;;182.75;57.63;;;;;;;-8.93;54.02;99272.94;4953974;28;20062;-81
2022/01/29 08:20:05;;;;;;;191.45;59.03;;;;;;;-8.77;53.70;99274.59;4922322;29;20051;-82
2022/01/29 08:22:31;;;;;;;189.93;60.75;;;;;;;-8.59;53.46;99277.13;4905784;29;20063;-81
2022/01/29 08:24:57;;;;;;;188.38;59.47;;;;;;;-8.41;53.54;99277.94;4905802;29;20094;-83
2022/01/29 08:27:23;;;;;;;189.88;59.08;;;;;;;-8.23;53.08;99282.13;4954467;29;20054;-81
2022/01/29 08:29:49;;;;;;;198.45;56.42;;;;;;;-8.01;52.74;99280.25;4953030;28;20047;-80
2022/01/29 08:32:15;;;;;;;174.05;57.55;;;;;;;-7.80;52.58;99276.66;4953307;29;20043;-81
2022/01/29 08:34:43;;;;;;;170.93;56.10;;;;;;;-7.64;52.01;99268.72;4937222;29;20403;-80
2022/01/29 08:37:12;;;;;;;180.35;55.95;;;;;;;-7.46;51.89;99264.28;4938498;29;20080;-82
2022/01/29 08:39:39;;;;;;;166.57;56.15;;;;;;;-7.27;51.83;99262.38;4954083;29;20051;-82
2022/01/29 08:42:05;;;;;;;161.38;58.15;;;;;;;-7.10;51.21;99256.13;4921367;29;20043;-82
2022/01/29 08:44:31;;;;;;;188.07;61.40;;;;;;;-6.93;51.08;99265.47;4937008;29;20035;-81
2022/01/29 08:46:57;;;;;;;149.43;54.47;;;;;;;-6.89;50.63;99267.16;4937079;29;20384;-81
2022/01/29 08:49:25;;;;;;;167.48;57.17;;;;;;;-7.10;50.22;99260.47;4937156;29;20050;-80
2022/01/29 08:51:52;;;;;;;152.70;51.67;;;;;;;-7.46;50.34;99266.88;4954275;28;20070;-81
2022/01/29 08:54:18;;;;;;;165.75;55.63;;;;;;;-7.37;50.73;99279.75;4957002;29;20070;-83
2022/01/29 08:56:44;;;;;;;148.98;53.95;;;;;;;-7.25;51.24;99281.41;4940588;29;20078;-80
2022/01/29 08:59:10;;;;;;;150.43;56.03;;;;;;;-7.13;50.64;99284.72;4940682;29;20051;-82
2022/01/29 09:01:36;;;;;;;132.40;49.58;;;;;;;-7.32;49.58;99278.00;4909467;29;20399;-81
2022/01/29 09:04:02;;;;;;;133.00;49.83;;;;;;;-7.78;49.67;99265.41;4908958;29;20566;-81
2022/01/29 09:06:28;;;;;;;133.70;48.67;;;;;;;-7.71;50.28;99271.38;4956494;28;20074;-79
2022/01/29 09:08:55;;;;;;;136.10;47.92;;;;;;;-7.95;50.27;99269.84;4925028;29;20047;-82
2022/01/29 09:11:24;;;;;;;119.97;48.50;;;;;;;-7.90;50.60;99278.44;4940927;29;20055;-80
2022/01/29 09:13:50;;;;;;;129.30;45.45;;;;;;;-8.08;49.49;99282.03;4924871;29;20135;-79
2022/01/29 09:16:16;;;;;;;146.60;48.03;;;;;;;-8.07;50.53;99282.03;4957748;29;20436;-81
2022/01/29 09:18:42;;;;;;;128.65;44.38;;;;;;;-7.80;50.48;99269.72;4956408;29;20054;-81
2022/01/29 09:21:08;;;;;;;123.30;45.63;;;;;;;-7.65;50.60;99269.63;4924615;29;20082;-81
2022/01/29 09:23:34;;;;;;;120.75;43.30;;;;;;;-7.71;50.34;99280.06;4917996;29;20149;-80
2022/01/29 09:26:01;;;;;;;120.25;45.15;;;;;;;-7.49;50.46;99279.88;4989540;28;20078;-83
2022/01/29 09:28:27;;;;;;;105.25;40.72;;;;;;;-7.50;50.91;99278.16;4929035;29;20475;-81
2022/01/29 09:30:53;;;;;;;105.63;38.72;;;;;;;-7.47;50.45;99270.34;4909808;29;20142;-82
2022/01/29 09:33:19;;;;;;;103.72;39.72;;;;;;;-7.35;50.69;99271.09;4929655;29;20040;-81
2022/01/29 09:35:45;;;;;;;111.55;41.20;;;;;;;-7.23;50.53;99264.06;4933038;29;20050;-82
2022/01/29 09:38:12;;;;;;;115.60;42.38;;;;;;;-7.31;50.91;99263.28;4909015;29;20636;-80
2022/01/29 09:40:39;;;;;;;118.80;40.47;;;;;;;-7.01;50.87;99256.91;4955780;29;20098;-80
2022/01/29 09:43:08;;;;;;;115.35;40.53;;;;;;;-6.89;51.16;99248.97;4908431;29;20043;-81
2022/01/29 09:45:34;;;;;;;99.05;36.80;;;;;;;-6.86;51.67;99256.75;4924331;29;20047;-81
2022/01/29 09:48:03;;;;;;;95.53;35.17;;;;;;;-6.85;51.26;99259.31;4955950;29;20050;-80
2022/01/29 09:50:35;;;;;;;98.90;39.03;;;;;;;-6.85;51.49;99261.06;4924956;29;20171;-81
2022/01/29 09:53:01;;;;;;;100.88;38.40;;;;;;;-6.73;51.43;99252.25;4940056;29;20058;-82
2022/01/29 09:55:27;;;;;;;92.18;38.50;;;;;;;-6.44;51.27;99264.91;4955410;29;20575;-81
2022/01/29 09:57:53;;;;;;;104.40;39.80;;;;;;;-6.37;50.57;99249.19;4908226;29;20039;-82
2022/01/29 10:00:19;;;;;;;91.82;37.50;;;;;;;-6.38;50.34;99264.84;4923752;29;20047;-80
2022/01/29 10:03:10;;;;;;;79.07;33.22;;;;;;;-6.45;50.31;99268.38;4954970;28;20042;-82
2022/01/29 10:05:40;;;;;;;82.28;34.45;;;;;;;-6.51;50.59;99268.44;4940975;29;20152;-81
2022/01/29 10:08:07;;;;;;;79.10;33.83;;;;;;;-6.49;50.22;99253.72;4923600;29;20391;-81
2022/01/29 10:10:43;;;;;;;79.80;31.30;;;;;;;-6.24;50.89;99254.22;4956419;28;20463;-81
2022/01/29 10:13:27;;;;;;;73.50;30.92;;;;;;;-6.11;49.51;99250.59;4908791;29;20047;-82
2022/01/29 10:16:06;;;;;;;94.97;36.33;;;;;;;-6.33;49.46;99257.81;4923951;29;20043;-79
2022/01/29 10:18:33;;;;;;;86.50;34.30;;;;;;;-6.31;49.25;99245.66;4925653;29;20054;-81
2022/01/29 10:21:12;;;;;;;86.05;34.83;;;;;;;-6.39;49.66;99252.72;4923152;29;20039;-81
2022/01/29 10:23:38;;;;;;;83.28;32.60;;;;;;;-6.34;49.98;99261.31;4956267;29;20191;-79
2022/01/29 10:26:05;;;;;;;80.75;34.20;;;;;;;-6.37;50.56;99251.78;4923352;29;20047;-79
2022/01/29 10:28:31;;;;;;;85.68;34.88;;;;;;;-6.33;50.33;99257.81;4923417;29;20380;-80
2022/01/29 10:31:02;;;;;;;89.35;33.20;;;;;;;-6.20;49.72;99254.19;4955374;28;20051;-82
2022/01/29 10:33:29;;;;;;;79.70;31.25;;;;;;;-5.97;49.33;99247.78;4939839;29;20051;-81
2022/01/29 10:36:05;;;;;;;73.90;29.95;;;;;;;-5.86;48.83;99243.25;4954949;28;20043;-82
2022/01/29 10:38:40;;;;;;;75.18;32.05;;;;;;;-5.80;48.57;99237.94;4923566;29;20479;-82
2022/01/29 10:41:21;;;;;;;74.90;32.42;;;;;;;-5.63;48.74;99241.13;4938825;29;20051;-82
2022/01/29 10:44:19;;;;;;;81.15;32.30;;;;;;;-5.53;47.95;99249.63;4923625;29;20047;-82
2022/01/29 10:46:53;;;;;;;72.68;29.52;;;;;;;-5.65;47.95;99247.25;4955084;29;20047;-81
2022/01/29 10:49:26;;;;;;;71.22;27.30;;;;;;;-5.67;48.71;99254.22;4923484;29;20083;-81
2022/01/29 10:52:06;;;;;;;68.18;28.40;;;;;;;-5.53;48.82;99254.00;4938643;29;20088;-84
2022/01/29 10:54:33;;;;;;;;;;;;;;;-5.43;48.70;99252.97;4924450;29;20058;-83
2022/01/29 10:57:06;;;;;;;54.53;24.02;;;;;;;-5.36;48.33;99249.38;4938427;29;19924;-82
2022/01/29 10:59:34;;;;;;;100.53;38.47;;;;;;;-5.23;48.12;99269.13;4938930;29;20082;-80
2022/01/29 11:02:08;;;;;;;120.78;47.75;;;;;;;-5.24;47.57;99272.59;4922586;29;20039;-81
2022/01/29 11:04:36;;;;;;;116.65;49.63;;;;;;;-5.17;47.24;99271.59;4923174;29;20082;-85
2022/01/29 11:07:06;;;;;;;99.78;41.38;;;;;;;-5.19;46.83;99264.69;4923089;29;20047;-80
2022/01/29 11:09:32;;;;;;;69.82;34.00;;;;;;;-5.16;46.27;99267.25;4924044;29;20047;-81
2022/01/29 11:12:00;;;;;;;84.40;36.83;;;;;;;-5.14;46.26;99276.78;4922934;29;20102;-80
2022/01/29 11:14:26;;;;;;;80.03;38.53;;;;;;;-5.22;45.85;99272.59;4953401;28;20486;-80
2022/01/29 11:16:53;;;;;;;98.97;39.65;;;;;;;-5.28;45.94;99276.13;4906732;29;20142;-81